sensor_id;sensor_type;location;lat;lon;timestamp;temperature;humidity
22089;DHT22;11211;52.728;9.230;2022-12-29T00:01:52;11.50;91.00
22089;DHT22;11211;52.728;9.230;2022-12-29T00:04:20;11.50;91.00
22089;DHT22;11211;52.728;9.230;2022-12-29T00:06:49;11.50;91.00
22089;DHT22;11211;52.728;9.230;2022-12-29T00:09:16;11.40;91.00
22089;DHT22;11211;52.728;9.230;2022-12-29T00:11:44;11.50;91.00
22089;DHT22;11211;52.728;9.230;2022-12-29T00:14:13;11.50;91.00
22089;DHT22;11211;52.728;9.230;2022-12-29T00:17:00;11.50;91.00
22089;DHT22;11211;52.728;9.230;2022-12-29T00:19:29;11.40;91.00
22089;DHT22;11211;52.728;9.230;2022-12-29T00:22:15;11.40;91.00
22089;DHT22;11211;52.728;9.230;2022-12-29T00:25:02;11.40;91.00
22089;DHT22;11211;52.728;9.230;2022-12-29T00:27:48;11.40;91.00
22089;DHT22;11211;52.728;9.230;2022-12-29T00:30:32;11.50;91.00
22089;DHT22;11211;52.728;9.230;2022-12-29T00:33:18;11.50;91.00
22089;DHT22;11211;52.728;9.230;2022-12-29T00:36:06;11.40;91.00
22089;DHT22;11211;52.728;9.230;2022-12-29T00:38:36;11.50;91.00
22089;DHT22;11211;52.728;9.230;2022-12-29T00:41:20;11.50;91.00
22089;DHT22;11211;52.728;9.230;2022-12-29T00:44:04;11.50;91.00
22089;DHT22;11211;52.728;9.230;2022-12-29T00:46:37;11.40;91.00
22089;DHT22;11211;52.728;9.230;2022-12-29T00:49:05;11.40;91.00
22089;DHT22;11211;52.728;9.230;2022-12-29T00:51:52;11.40;91.00
22089;DHT22;11211;52.728;9.230;2022-12-29T00:54:18;11.40;91.00
22089;DHT22;11211;52.728;9.230;2022-12-29T00:56:52;11.40;91.00
22089;DHT22;11211;52.728;9.230;2022-12-29T00:59:19;11.50;91.00
22089;DHT22;11211;52.728;9.230;2022-12-29T01:01:46;11.40;91.00
22089;DHT22;11211;52.728;9.230;2022-12-29T01:04:13;11.40;91.00
22089;DHT22;11211;52.728;9.230;2022-12-29T01:06:41;11.40;91.10
22089;DHT22;11211;52.728;9.230;2022-12-29T01:09:10;11.40;91.10
22089;DHT22;11211;52.728;9.230;2022-12-29T01:11:54;11.50;91.10
22089;DHT22;11211;52.728;9.230;2022-12-29T01:14:22;11.40;91.10
22089;DHT22;11211;52.728;9.230;2022-12-29T01:17:01;11.40;91.10
22089;DHT22;11211;52.728;9.230;2022-12-29T01:19:36;11.40;91.20
22089;DHT22;11211;52.728;9.230;2022-12-29T01:22:12;11.40;91.10
22089;DHT22;11211;52.728;9.230;2022-12-29T01:24:40;11.40;91.10
22089;DHT22;11211;52.728;9.230;2022-12-29T01:27:07;11.40;91.10
22089;DHT22;11211;52.728;9.230;2022-12-29T01:29:40;11.40;91.20
22089;DHT22;11211;52.728;9.230;2022-12-29T01:32:06;11.40;91.10
22089;DHT22;11211;52.728;9.230;2022-12-29T01:34:33;11.40;91.20
22089;DHT22;11211;52.728;9.230;2022-12-29T01:37:02;11.40;91.20
22089;DHT22;11211;52.728;9.230;2022-12-29T01:39:34;11.40;91.20
22089;DHT22;11211;52.728;9.230;2022-12-29T01:42:03;11.40;91.20
22089;DHT22;11211;52.728;9.230;2022-12-29T01:44:52;11.40;91.20
22089;DHT22;11211;52.728;9.230;2022-12-29T01:47:29;11.40;91.20
22089;DHT22;11211;52.728;9.230;2022-12-29T01:49:58;11.40;91.20
22089;DHT22;11211;52.728;9.230;2022-12-29T01:52:32;11.40;91.20
22089;DHT22;11211;52.728;9.230;2022-12-29T01:55:00;11.40;91.20
22089;DHT22;11211;52.728;9.230;2022-12-29T01:57:36;11.40;91.30
22089;DHT22;11211;52.728;9.230;2022-12-29T02:00:06;11.40;91.30
22089;DHT22;11211;52.728;9.230;2022-12-29T02:02:34;11.40;91.30
22089;DHT22;11211;52.728;9.230;2022-12-29T02:05:07;11.40;91.30
22089;DHT22;11211;52.728;9.230;2022-12-29T02:07:41;11.40;91.20
22089;DHT22;11211;52.728;9.230;2022-12-29T02:10:08;11.40;91.20
22089;DHT22;11211;52.728;9.230;2022-12-29T02:12:36;11.40;91.20
22089;DHT22;11211;52.728;9.230;2022-12-29T02:15:12;11.40;91.60
22089;DHT22;11211;52.728;9.230;2022-12-29T02:18:13;11.40;91.20
22089;DHT22;11211;52.728;9.230;2022-12-29T02:33:30;11.40;91.20
22089;DHT22;11211;52.728;9.230;2022-12-29T02:38:52;11.40;91.20
22089;DHT22;11211;52.728;9.230;2022-12-29T02:41:31;11.40;91.20
22089;DHT22;11211;52.728;9.230;2022-12-29T02:44:08;11.40;91.20
22089;DHT22;11211;52.728;9.230;2022-12-29T02:46:56;11.40;91.20
22089;DHT22;11211;52.728;9.230;2022-12-29T02:49:32;11.40;91.20
22089;DHT22;11211;52.728;9.230;2022-12-29T02:52:15;11.40;91.20
22089;DHT22;11211;52.728;9.230;2022-12-29T02:54:43;11.40;91.20
22089;DHT22;11211;52.728;9.230;2022-12-29T02:57:12;11.40;91.30
22089;DHT22;11211;52.728;9.230;2022-12-29T02:59:41;11.40;91.40
22089;DHT22;11211;52.728;9.230;2022-12-29T03:02:28;11.40;91.40
22089;DHT22;11211;52.728;9.230;2022-12-29T03:05:11;11.40;91.40
22089;DHT22;11211;52.728;9.230;2022-12-29T03:07:52;11.40;91.40
22089;DHT22;11211;52.728;9.230;2022-12-29T03:10:32;11.40;91.50
22089;DHT22;11211;52.728;9.230;2022-12-29T03:13:06;11.40;91.50
22089;DHT22;11211;52.728;9.230;2022-12-29T03:15:58;11.40;91.50
22089;DHT22;11211;52.728;9.230;2022-12-29T03:18:49;11.40;91.50
22089;DHT22;11211;52.728;9.230;2022-12-29T03:21:24;11.40;91.60
22089;DHT22;11211;52.728;9.230;2022-12-29T03:24:19;11.40;91.60
22089;DHT22;11211;52.728;9.230;2022-12-29T03:26:48;11.40;91.60
22089;DHT22;11211;52.728;9.230;2022-12-29T03:29:27;11.40;91.60
22089;DHT22;11211;52.728;9.230;2022-12-29T03:32:06;11.40;91.70
22089;DHT22;11211;52.728;9.230;2022-12-29T03:34:41;11.40;91.70
22089;DHT22;11211;52.728;9.230;2022-12-29T03:37:11;11.40;91.70
22089;DHT22;11211;52.728;9.230;2022-12-29T03:39:38;11.40;91.80
22089;DHT22;11211;52.728;9.230;2022-12-29T03:42:09;11.40;91.70
22089;DHT22;11211;52.728;9.230;2022-12-29T03:44:41;11.40;91.80
22089;DHT22;11211;52.728;9.230;2022-12-29T03:47:13;11.40;91.80
22089;DHT22;11211;52.728;9.230;2022-12-29T03:49:41;11.40;91.80
22089;DHT22;11211;52.728;9.230;2022-12-29T03:52:16;11.40;91.90
22089;DHT22;11211;52.728;9.230;2022-12-29T03:54:46;11.40;91.90
22089;DHT22;11211;52.728;9.230;2022-12-29T03:57:13;11.40;92.20
22089;DHT22;11211;52.728;9.230;2022-12-29T03:59:39;11.40;92.00
22089;DHT22;11211;52.728;9.230;2022-12-29T04:02:06;11.40;92.00
22089;DHT22;11211;52.728;9.230;2022-12-29T04:04:33;11.40;92.00
22089;DHT22;11211;52.728;9.230;2022-12-29T04:07:02;11.40;92.10
22089;DHT22;11211;52.728;9.230;2022-12-29T04:09:39;11.40;92.10
22089;DHT22;11211;52.728;9.230;2022-12-29T04:12:08;11.50;92.00
22089;DHT22;11211;52.728;9.230;2022-12-29T04:14:40;11.50;92.40
22089;DHT22;11211;52.728;9.230;2022-12-29T04:17:12;11.50;92.00
22089;DHT22;11211;52.728;9.230;2022-12-29T04:19:39;11.50;91.90
22089;DHT22;11211;52.728;9.230;2022-12-29T04:22:07;11.50;91.90
22089;DHT22;11211;52.728;9.230;2022-12-29T04:24:38;11.60;92.00
22089;DHT22;11211;52.728;9.230;2022-12-29T04:27:05;11.60;91.90
22089;DHT22;11211;52.728;9.230;2022-12-29T04:29:32;11.60;91.90
22089;DHT22;11211;52.728;9.230;2022-12-29T04:31:59;11.60;91.80
22089;DHT22;11211;52.728;9.230;2022-12-29T04:34:26;11.60;91.90
22089;DHT22;11211;52.728;9.230;2022-12-29T04:36:52;11.60;92.00
22089;DHT22;11211;52.728;9.230;2022-12-29T04:39:21;11.60;92.00
22089;DHT22;11211;52.728;9.230;2022-12-29T04:41:48;11.60;92.00
22089;DHT22;11211;52.728;9.230;2022-12-29T04:44:14;11.60;92.00
22089;DHT22;11211;52.728;9.230;2022-12-29T04:46:52;11.60;92.00
22089;DHT22;11211;52.728;9.230;2022-12-29T04:49:19;11.60;92.10
22089;DHT22;11211;52.728;9.230;2022-12-29T04:51:46;11.60;92.10
22089;DHT22;11211;52.728;9.230;2022-12-29T04:54:12;11.60;92.10
22089;DHT22;11211;52.728;9.230;2022-12-29T04:56:40;11.60;92.10
22089;DHT22;11211;52.728;9.230;2022-12-29T04:59:07;11.60;92.20
22089;DHT22;11211;52.728;9.230;2022-12-29T05:01:36;11.60;92.10
22089;DHT22;11211;52.728;9.230;2022-12-29T05:04:03;11.60;92.10
22089;DHT22;11211;52.728;9.230;2022-12-29T05:06:32;11.60;92.00
22089;DHT22;11211;52.728;9.230;2022-12-29T05:08:59;11.60;92.10
22089;DHT22;11211;52.728;9.230;2022-12-29T05:11:26;11.60;92.20
22089;DHT22;11211;52.728;9.230;2022-12-29T05:13:54;11.60;92.20
22089;DHT22;11211;52.728;9.230;2022-12-29T05:16:21;11.60;92.20
22089;DHT22;11211;52.728;9.230;2022-12-29T05:18:48;11.60;92.20
22089;DHT22;11211;52.728;9.230;2022-12-29T05:21:14;11.60;92.30
22089;DHT22;11211;52.728;9.230;2022-12-29T05:23:41;11.60;92.30
22089;DHT22;11211;52.728;9.230;2022-12-29T05:26:08;11.60;92.20
22089;DHT22;11211;52.728;9.230;2022-12-29T05:28:35;11.60;92.30
22089;DHT22;11211;52.728;9.230;2022-12-29T05:31:09;11.60;92.20
22089;DHT22;11211;52.728;9.230;2022-12-29T05:33:36;11.60;92.30
22089;DHT22;11211;52.728;9.230;2022-12-29T05:36:15;11.60;92.30
22089;DHT22;11211;52.728;9.230;2022-12-29T05:38:43;11.60;92.40
22089;DHT22;11211;52.728;9.230;2022-12-29T05:41:19;11.60;92.40
22089;DHT22;11211;52.728;9.230;2022-12-29T05:43:45;11.60;92.50
22089;DHT22;11211;52.728;9.230;2022-12-29T05:46:14;11.60;92.50
22089;DHT22;11211;52.728;9.230;2022-12-29T05:48:44;11.60;92.60
22089;DHT22;11211;52.728;9.230;2022-12-29T05:51:13;11.60;92.60
22089;DHT22;11211;52.728;9.230;2022-12-29T05:53:40;11.60;92.60
22089;DHT22;11211;52.728;9.230;2022-12-29T05:56:12;11.60;92.60
22089;DHT22;11211;52.728;9.230;2022-12-29T05:58:39;11.60;92.50
22089;DHT22;11211;52.728;9.230;2022-12-29T06:01:08;11.60;92.50
22089;DHT22;11211;52.728;9.230;2022-12-29T06:03:36;11.60;92.50
22089;DHT22;11211;52.728;9.230;2022-12-29T06:06:05;11.60;92.60
22089;DHT22;11211;52.728;9.230;2022-12-29T06:08:46;11.60;92.60
22089;DHT22;11211;52.728;9.230;2022-12-29T06:11:13;11.60;92.60
22089;DHT22;11211;52.728;9.230;2022-12-29T06:13:45;11.60;92.50
22089;DHT22;11211;52.728;9.230;2022-12-29T06:16:15;11.60;92.50
22089;DHT22;11211;52.728;9.230;2022-12-29T06:18:46;11.60;92.60
22089;DHT22;11211;52.728;9.230;2022-12-29T06:21:19;11.70;92.50
22089;DHT22;11211;52.728;9.230;2022-12-29T06:23:45;11.60;92.60
22089;DHT22;11211;52.728;9.230;2022-12-29T06:26:14;11.70;92.60
22089;DHT22;11211;52.728;9.230;2022-12-29T06:28:56;11.70;92.70
22089;DHT22;11211;52.728;9.230;2022-12-29T06:31:23;11.70;92.60
22089;DHT22;11211;52.728;9.230;2022-12-29T06:33:51;11.70;92.60
22089;DHT22;11211;52.728;9.230;2022-12-29T06:36:18;11.70;92.70
22089;DHT22;11211;52.728;9.230;2022-12-29T06:38:45;11.70;92.60
22089;DHT22;11211;52.728;9.230;2022-12-29T06:41:11;11.70;92.60
22089;DHT22;11211;52.728;9.230;2022-12-29T06:43:38;11.70;92.60
22089;DHT22;11211;52.728;9.230;2022-12-29T06:46:07;11.70;92.50
22089;DHT22;11211;52.728;9.230;2022-12-29T06:48:40;11.70;92.50
22089;DHT22;11211;52.728;9.230;2022-12-29T06:51:09;11.70;92.50
22089;DHT22;11211;52.728;9.230;2022-12-29T06:53:36;11.70;92.60
22089;DHT22;11211;52.728;9.230;2022-12-29T06:56:03;11.70;92.60
22089;DHT22;11211;52.728;9.230;2022-12-29T06:58:30;11.70;92.60
22089;DHT22;11211;52.728;9.230;2022-12-29T07:00:57;11.70;92.60
22089;DHT22;11211;52.728;9.230;2022-12-29T07:03:24;11.70;92.90
22089;DHT22;11211;52.728;9.230;2022-12-29T07:05:54;11.70;92.60
22089;DHT22;11211;52.728;9.230;2022-12-29T07:08:24;11.70;92.60
22089;DHT22;11211;52.728;9.230;2022-12-29T07:10:51;11.70;92.60
22089;DHT22;11211;52.728;9.230;2022-12-29T07:13:18;11.80;92.60
22089;DHT22;11211;52.728;9.230;2022-12-29T07:15:44;11.70;92.60
22089;DHT22;11211;52.728;9.230;2022-12-29T07:18:16;11.80;92.50
22089;DHT22;11211;52.728;9.230;2022-12-29T07:20:43;11.80;92.60
22089;DHT22;11211;52.728;9.230;2022-12-29T07:23:13;11.80;92.50
22089;DHT22;11211;52.728;9.230;2022-12-29T07:25:44;11.80;92.50
22089;DHT22;11211;52.728;9.230;2022-12-29T07:28:10;11.80;92.60
22089;DHT22;11211;52.728;9.230;2022-12-29T07:30:40;11.80;92.60
22089;DHT22;11211;52.728;9.230;2022-12-29T07:33:06;11.80;92.60
22089;DHT22;11211;52.728;9.230;2022-12-29T07:35:34;11.80;92.60
22089;DHT22;11211;52.728;9.230;2022-12-29T07:38:06;11.80;92.60
22089;DHT22;11211;52.728;9.230;2022-12-29T07:40:43;11.80;92.60
22089;DHT22;11211;52.728;9.230;2022-12-29T07:43:10;11.80;92.50
22089;DHT22;11211;52.728;9.230;2022-12-29T07:45:36;11.80;92.50
22089;DHT22;11211;52.728;9.230;2022-12-29T07:48:04;11.80;92.40
22089;DHT22;11211;52.728;9.230;2022-12-29T07:50:33;11.80;92.50
22089;DHT22;11211;52.728;9.230;2022-12-29T07:53:01;11.80;92.40
22089;DHT22;11211;52.728;9.230;2022-12-29T07:55:28;11.80;92.50
22089;DHT22;11211;52.728;9.230;2022-12-29T07:58:04;11.80;92.60
22089;DHT22;11211;52.728;9.230;2022-12-29T08:00:34;11.80;92.60
22089;DHT22;11211;52.728;9.230;2022-12-29T08:03:04;11.80;92.60
22089;DHT22;11211;52.728;9.230;2022-12-29T08:05:31;11.80;92.50
22089;DHT22;11211;52.728;9.230;2022-12-29T08:07:58;11.80;92.50
22089;DHT22;11211;52.728;9.230;2022-12-29T08:10:26;11.80;92.50
22089;DHT22;11211;52.728;9.230;2022-12-29T08:12:52;11.80;92.50
22089;DHT22;11211;52.728;9.230;2022-12-29T08:15:20;11.80;92.50
22089;DHT22;11211;52.728;9.230;2022-12-29T08:17:50;11.80;92.50
22089;DHT22;11211;52.728;9.230;2022-12-29T08:20:17;11.80;92.50
22089;DHT22;11211;52.728;9.230;2022-12-29T08:22:44;11.80;92.40
22089;DHT22;11211;52.728;9.230;2022-12-29T08:25:13;11.80;92.40
22089;DHT22;11211;52.728;9.230;2022-12-29T08:27:53;11.80;92.40
22089;DHT22;11211;52.728;9.230;2022-12-29T08:30:35;11.80;92.40
22089;DHT22;11211;52.728;9.230;2022-12-29T08:33:02;11.90;92.60
22089;DHT22;11211;52.728;9.230;2022-12-29T10:43:26;12.10;93.00
22089;DHT22;11211;52.728;9.230;2022-12-29T10:45:58;12.10;93.00
22089;DHT22;11211;52.728;9.230;2022-12-29T10:48:32;12.10;93.00
22089;DHT22;11211;52.728;9.230;2022-12-29T10:51:01;12.10;93.00
22089;DHT22;11211;52.728;9.230;2022-12-29T10:53:35;12.10;93.00
22089;DHT22;11211;52.728;9.230;2022-12-29T10:56:12;12.10;92.90
22089;DHT22;11211;52.728;9.230;2022-12-29T10:58:43;12.10;93.00
22089;DHT22;11211;52.728;9.230;2022-12-29T11:01:12;12.10;93.00
22089;DHT22;11211;52.728;9.230;2022-12-29T11:03:54;12.10;92.90
22089;DHT22;11211;52.728;9.230;2022-12-29T11:06:27;12.10;93.00
22089;DHT22;11211;52.728;9.230;2022-12-29T11:09:03;12.10;92.90
22089;DHT22;11211;52.728;9.230;2022-12-29T11:11:36;12.10;93.00
22089;DHT22;11211;52.728;9.230;2022-12-29T11:14:12;12.10;93.00
22089;DHT22;11211;52.728;9.230;2022-12-29T11:16:40;12.10;92.90
22089;DHT22;11211;52.728;9.230;2022-12-29T11:19:20;12.10;93.00
22089;DHT22;11211;52.728;9.230;2022-12-29T11:21:53;12.10;93.30
22089;DHT22;11211;52.728;9.230;2022-12-29T11:24:22;12.10;93.10
22089;DHT22;11211;52.728;9.230;2022-12-29T11:26:50;12.10;93.00
22089;DHT22;11211;52.728;9.230;2022-12-29T11:29:27;12.10;93.00
22089;DHT22;11211;52.728;9.230;2022-12-29T11:32:24;12.10;93.00
22089;DHT22;11211;52.728;9.230;2022-12-29T11:35:17;12.10;93.00
22089;DHT22;11211;52.728;9.230;2022-12-29T11:37:56;12.10;93.10
22089;DHT22;11211;52.728;9.230;2022-12-29T11:40:23;12.20;93.10
22089;DHT22;11211;52.728;9.230;2022-12-29T11:42:55;12.10;93.00
22089;DHT22;11211;52.728;9.230;2022-12-29T11:45:26;12.20;93.10
22089;DHT22;11211;52.728;9.230;2022-12-29T11:47:55;12.20;93.50
22089;DHT22;11211;52.728;9.230;2022-12-29T11:50:24;12.10;93.10
22089;DHT22;11211;52.728;9.230;2022-12-29T11:52:59;12.10;93.00
22089;DHT22;11211;52.728;9.230;2022-12-29T11:55:29;12.20;93.10
22089;DHT22;11211;52.728;9.230;2022-12-29T11:58:03;12.20;93.00
22089;DHT22;11211;52.728;9.230;2022-12-29T12:00:41;12.10;93.10
22089;DHT22;11211;52.728;9.230;2022-12-29T12:03:13;12.20;93.10
22089;DHT22;11211;52.728;9.230;2022-12-29T12:05:47;12.20;93.10
22089;DHT22;11211;52.728;9.230;2022-12-29T12:08:22;12.20;93.10
22089;DHT22;11211;52.728;9.230;2022-12-29T12:11:04;12.20;93.10
22089;DHT22;11211;52.728;9.230;2022-12-29T12:13:43;12.20;93.10
22089;DHT22;11211;52.728;9.230;2022-12-29T12:16:16;12.20;93.10
22089;DHT22;11211;52.728;9.230;2022-12-29T12:18:47;12.20;93.10
22089;DHT22;11211;52.728;9.230;2022-12-29T12:21:22;12.20;93.10
22089;DHT22;11211;52.728;9.230;2022-12-29T12:24:21;12.20;93.10
22089;DHT22;11211;52.728;9.230;2022-12-29T12:26:57;12.20;93.10
22089;DHT22;11211;52.728;9.230;2022-12-29T12:29:38;12.20;93.10
22089;DHT22;11211;52.728;9.230;2022-12-29T12:32:38;12.20;93.10
22089;DHT22;11211;52.728;9.230;2022-12-29T12:35:22;12.20;93.10
22089;DHT22;11211;52.728;9.230;2022-12-29T12:38:26;12.20;93.10
22089;DHT22;11211;52.728;9.230;2022-12-29T12:41:11;12.20;93.10
22089;DHT22;11211;52.728;9.230;2022-12-29T12:43:48;12.20;93.00
22089;DHT22;11211;52.728;9.230;2022-12-29T12:46:42;12.20;93.00
22089;DHT22;11211;52.728;9.230;2022-12-29T12:53:19;12.20;93.10
22089;DHT22;11211;52.728;9.230;2022-12-29T12:56:18;12.20;93.10
22089;DHT22;11211;52.728;9.230;2022-12-29T12:58:53;12.20;93.10
22089;DHT22;11211;52.728;9.230;2022-12-29T13:01:34;12.20;93.00
22089;DHT22;11211;52.728;9.230;2022-12-29T13:04:21;12.20;93.00
22089;DHT22;11211;52.728;9.230;2022-12-29T13:07:03;12.20;93.00
22089;DHT22;11211;52.728;9.230;2022-12-29T13:09:52;12.20;93.00
22089;DHT22;11211;52.728;9.230;2022-12-29T13:12:38;12.20;93.00
22089;DHT22;11211;52.728;9.230;2022-12-29T13:15:14;12.20;93.00
22089;DHT22;11211;52.728;9.230;2022-12-29T13:17:50;12.20;93.00
22089;DHT22;11211;52.728;9.230;2022-12-29T13:20:39;12.20;93.00
22089;DHT22;11211;52.728;9.230;2022-12-29T13:23:23;12.20;93.00
22089;DHT22;11211;52.728;9.230;2022-12-29T13:26:05;12.20;93.00
22089;DHT22;11211;52.728;9.230;2022-12-29T13:28:54;12.20;93.00
22089;DHT22;11211;52.728;9.230;2022-12-29T13:31:54;12.20;92.90
22089;DHT22;11211;52.728;9.230;2022-12-29T13:35:01;12.20;93.00
22089;DHT22;11211;52.728;9.230;2022-12-29T13:38:10;12.20;92.90
22089;DHT22;11211;52.728;9.230;2022-12-29T13:44:02;12.30;93.00
22089;DHT22;11211;52.728;9.230;2022-12-29T13:46:45;12.30;92.90
22089;DHT22;11211;52.728;9.230;2022-12-29T13:49:18;12.30;92.90
22089;DHT22;11211;52.728;9.230;2022-12-29T13:52:13;12.30;92.90
22089;DHT22;11211;52.728;9.230;2022-12-29T13:54:57;12.30;92.90
22089;DHT22;11211;52.728;9.230;2022-12-29T13:57:44;12.30;92.90
22089;DHT22;11211;52.728;9.230;2022-12-29T14:00:27;12.30;92.90
22089;DHT22;11211;52.728;9.230;2022-12-29T14:03:28;12.30;92.90
22089;DHT22;11211;52.728;9.230;2022-12-29T14:06:14;12.30;92.90
22089;DHT22;11211;52.728;9.230;2022-12-29T14:08:44;12.30;92.90
22089;DHT22;11211;52.728;9.230;2022-12-29T14:11:15;12.30;92.90
22089;DHT22;11211;52.728;9.230;2022-12-29T14:13:50;12.30;92.90
22089;DHT22;11211;52.728;9.230;2022-12-29T14:16:41;12.30;92.90
22089;DHT22;11211;52.728;9.230;2022-12-29T14:19:30;12.30;92.90
22089;DHT22;11211;52.728;9.230;2022-12-29T14:21:59;12.30;92.90
22089;DHT22;11211;52.728;9.230;2022-12-29T14:24:42;12.30;92.90
22089;DHT22;11211;52.728;9.230;2022-12-29T14:30:51;12.30;92.90
22089;DHT22;11211;52.728;9.230;2022-12-29T14:33:31;12.30;92.90
22089;DHT22;11211;52.728;9.230;2022-12-29T14:36:23;12.30;92.70
22089;DHT22;11211;52.728;9.230;2022-12-29T14:39:24;12.30;92.70
22089;DHT22;11211;52.728;9.230;2022-12-29T14:41:59;12.30;92.70
22089;DHT22;11211;52.728;9.230;2022-12-29T14:44:27;12.30;92.70
22089;DHT22;11211;52.728;9.230;2022-12-29T14:47:03;12.30;92.80
22089;DHT22;11211;52.728;9.230;2022-12-29T14:49:39;12.40;92.70
22089;DHT22;11211;52.728;9.230;2022-12-29T14:52:13;12.30;92.80
22089;DHT22;11211;52.728;9.230;2022-12-29T14:54:45;12.30;92.80
22089;DHT22;11211;52.728;9.230;2022-12-29T14:57:30;12.40;92.70
22089;DHT22;11211;52.728;9.230;2022-12-29T15:00:00;12.30;92.70
22089;DHT22;11211;52.728;9.230;2022-12-29T15:02:36;12.40;92.80
22089;DHT22;11211;52.728;9.230;2022-12-29T15:05:23;12.40;92.70
22089;DHT22;11211;52.728;9.230;2022-12-29T15:07:52;12.40;92.70
22089;DHT22;11211;52.728;9.230;2022-12-29T15:10:20;12.40;92.70
22089;DHT22;11211;52.728;9.230;2022-12-29T15:12:51;12.40;92.70
22089;DHT22;11211;52.728;9.230;2022-12-29T15:15:21;12.40;92.70
22089;DHT22;11211;52.728;9.230;2022-12-29T15:17:51;12.30;92.70
22089;DHT22;11211;52.728;9.230;2022-12-29T15:20:25;12.30;92.80
22089;DHT22;11211;52.728;9.230;2022-12-29T15:23:02;12.30;92.60
22089;DHT22;11211;52.728;9.230;2022-12-29T15:25:33;12.40;92.70
22089;DHT22;11211;52.728;9.230;2022-12-29T15:28:02;12.40;92.60
22089;DHT22;11211;52.728;9.230;2022-12-29T15:30:32;12.40;92.70
22089;DHT22;11211;52.728;9.230;2022-12-29T15:32:59;12.40;92.60
22089;DHT22;11211;52.728;9.230;2022-12-29T15:35:36;12.30;92.60
22089;DHT22;11211;52.728;9.230;2022-12-29T15:38:14;12.40;92.60
22089;DHT22;11211;52.728;9.230;2022-12-29T15:40:43;12.40;92.60
22089;DHT22;11211;52.728;9.230;2022-12-29T15:43:40;12.40;92.60
22089;DHT22;11211;52.728;9.230;2022-12-29T15:46:13;12.40;92.60
22089;DHT22;11211;52.728;9.230;2022-12-29T15:48:40;12.40;92.50
22089;DHT22;11211;52.728;9.230;2022-12-29T15:51:17;12.40;92.50
22089;DHT22;11211;52.728;9.230;2022-12-29T15:53:47;12.40;92.60
22089;DHT22;11211;52.728;9.230;2022-12-29T15:56:17;12.40;92.60
22089;DHT22;11211;52.728;9.230;2022-12-29T15:58:49;12.40;92.50
22089;DHT22;11211;52.728;9.230;2022-12-29T16:01:18;12.40;92.60
22089;DHT22;11211;52.728;9.230;2022-12-29T16:03:46;12.40;92.50
22089;DHT22;11211;52.728;9.230;2022-12-29T16:06:44;12.40;92.60
22089;DHT22;11211;52.728;9.230;2022-12-29T16:09:32;12.40;92.50
22089;DHT22;11211;52.728;9.230;2022-12-29T16:12:01;12.40;92.50
22089;DHT22;11211;52.728;9.230;2022-12-29T16:14:37;12.40;92.60
22089;DHT22;11211;52.728;9.230;2022-12-29T16:17:09;12.40;92.60
22089;DHT22;11211;52.728;9.230;2022-12-29T16:19:39;12.40;92.60
22089;DHT22;11211;52.728;9.230;2022-12-29T16:22:12;12.40;92.60
22089;DHT22;11211;52.728;9.230;2022-12-29T16:24:42;12.40;92.60
22089;DHT22;11211;52.728;9.230;2022-12-29T16:27:16;12.40;92.60
22089;DHT22;11211;52.728;9.230;2022-12-29T16:29:46;12.40;92.60
22089;DHT22;11211;52.728;9.230;2022-12-29T16:32:24;12.40;92.60
22089;DHT22;11211;52.728;9.230;2022-12-29T16:35:00;12.40;92.60
22089;DHT22;11211;52.728;9.230;2022-12-29T16:37:31;12.40;92.60
22089;DHT22;11211;52.728;9.230;2022-12-29T16:42:58;12.40;92.60
22089;DHT22;11211;52.728;9.230;2022-12-29T16:48:32;12.40;92.60
22089;DHT22;11211;52.728;9.230;2022-12-29T16:51:02;12.40;92.60
22089;DHT22;11211;52.728;9.230;2022-12-29T16:53:34;12.40;92.50
22089;DHT22;11211;52.728;9.230;2022-12-29T16:56:05;12.40;92.60
22089;DHT22;11211;52.728;9.230;2022-12-29T16:58:34;12.40;92.60
22089;DHT22;11211;52.728;9.230;2022-12-29T17:01:04;12.40;92.50
22089;DHT22;11211;52.728;9.230;2022-12-29T17:03:43;12.40;92.60
22089;DHT22;11211;52.728;9.230;2022-12-29T17:06:14;12.40;92.50
22089;DHT22;11211;52.728;9.230;2022-12-29T17:08:44;12.40;92.50
22089;DHT22;11211;52.728;9.230;2022-12-29T17:11:20;12.40;92.50
22089;DHT22;11211;52.728;9.230;2022-12-29T17:16:53;12.40;92.40
22089;DHT22;11211;52.728;9.230;2022-12-29T17:19:24;12.40;92.30
22089;DHT22;11211;52.728;9.230;2022-12-29T17:21:51;12.40;92.40
22089;DHT22;11211;52.728;9.230;2022-12-29T17:24:20;12.40;92.40
22089;DHT22;11211;52.728;9.230;2022-12-29T17:26:48;12.40;92.40
22089;DHT22;11211;52.728;9.230;2022-12-29T17:29:20;12.40;92.50
22089;DHT22;11211;52.728;9.230;2022-12-29T17:31:47;12.40;92.40
22089;DHT22;11211;52.728;9.230;2022-12-29T17:34:17;12.40;92.40
22089;DHT22;11211;52.728;9.230;2022-12-29T17:36:43;12.40;92.40
22089;DHT22;11211;52.728;9.230;2022-12-29T17:39:10;12.40;92.30
22089;DHT22;11211;52.728;9.230;2022-12-29T17:41:38;12.40;92.30
22089;DHT22;11211;52.728;9.230;2022-12-29T17:44:14;12.40;92.20
22089;DHT22;11211;52.728;9.230;2022-12-29T17:46:42;12.40;92.20
22089;DHT22;11211;52.728;9.230;2022-12-29T17:49:11;12.50;92.30
22089;DHT22;11211;52.728;9.230;2022-12-29T17:51:41;12.40;92.30
22089;DHT22;11211;52.728;9.230;2022-12-29T17:54:17;12.50;92.30
22089;DHT22;11211;52.728;9.230;2022-12-29T17:56:46;12.50;92.40
22089;DHT22;11211;52.728;9.230;2022-12-29T17:59:15;12.40;92.40
22089;DHT22;11211;52.728;9.230;2022-12-29T18:01:43;12.50;92.50
22089;DHT22;11211;52.728;9.230;2022-12-29T18:04:12;12.40;92.40
22089;DHT22;11211;52.728;9.230;2022-12-29T18:06:39;12.40;92.30
22089;DHT22;11211;52.728;9.230;2022-12-29T18:09:06;12.40;92.40
22089;DHT22;11211;52.728;9.230;2022-12-29T18:11:34;12.40;92.40
22089;DHT22;11211;52.728;9.230;2022-12-29T18:14:03;12.40;92.40
22089;DHT22;11211;52.728;9.230;2022-12-29T18:16:30;12.40;92.30
22089;DHT22;11211;52.728;9.230;2022-12-29T18:18:56;12.40;92.20
22089;DHT22;11211;52.728;9.230;2022-12-29T18:21:23;12.40;92.20
22089;DHT22;11211;52.728;9.230;2022-12-29T18:23:51;12.40;92.20
22089;DHT22;11211;52.728;9.230;2022-12-29T18:26:22;12.40;92.20
22089;DHT22;11211;52.728;9.230;2022-12-29T18:28:53;12.40;92.40
22089;DHT22;11211;52.728;9.230;2022-12-29T18:31:23;12.40;92.30
22089;DHT22;11211;52.728;9.230;2022-12-29T18:33:57;12.40;92.40
22089;DHT22;11211;52.728;9.230;2022-12-29T18:36:25;12.40;92.40
22089;DHT22;11211;52.728;9.230;2022-12-29T18:38:52;12.40;92.40
22089;DHT22;11211;52.728;9.230;2022-12-29T18:41:20;12.40;92.40
22089;DHT22;11211;52.728;9.230;2022-12-29T18:43:48;12.40;92.30
22089;DHT22;11211;52.728;9.230;2022-12-29T18:46:15;12.40;92.40
22089;DHT22;11211;52.728;9.230;2022-12-29T18:48:43;12.40;92.40
22089;DHT22;11211;52.728;9.230;2022-12-29T18:51:14;12.40;92.40
22089;DHT22;11211;52.728;9.230;2022-12-29T18:53:42;12.40;92.30